sensor_id;sensor_type;location;lat;lon;timestamp;temperature;humidity
42907;DHT22;28552;51.146;6.576;2024-03-17T00:02:31;5.80;99.90
42907;DHT22;28552;51.146;6.576;2024-03-17T00:05:31;5.80;99.90
42907;DHT22;28552;51.146;6.576;2024-03-17T00:08:32;5.70;99.90
42907;DHT22;28552;51.146;6.576;2024-03-17T00:11:33;5.70;99.90
42907;DHT22;28552;51.146;6.576;2024-03-17T00:14:37;5.70;99.90
42907;DHT22;28552;51.146;6.576;2024-03-17T00:17:39;5.70;99.90
42907;DHT22;28552;51.146;6.576;2024-03-17T00:20:40;5.70;99.90
42907;DHT22;28552;51.146;6.576;2024-03-17T00:23:40;5.70;99.90
42907;DHT22;28552;51.146;6.576;2024-03-17T00:26:42;5.60;99.90
42907;DHT22;28552;51.146;6.576;2024-03-17T00:29:42;5.60;99.90
42907;DHT22;28552;51.146;6.576;2024-03-17T00:32:43;5.60;99.90
42907;DHT22;28552;51.146;6.576;2024-03-17T00:35:43;5.60;99.90
42907;DHT22;28552;51.146;6.576;2024-03-17T00:38:44;5.60;99.90
42907;DHT22;28552;51.146;6.576;2024-03-17T00:41:44;5.60;99.90
42907;DHT22;28552;51.146;6.576;2024-03-17T00:44:45;5.70;99.90
42907;DHT22;28552;51.146;6.576;2024-03-17T00:47:46;5.70;99.90
42907;DHT22;28552;51.146;6.576;2024-03-17T00:50:46;5.70;99.90
42907;DHT22;28552;51.146;6.576;2024-03-17T00:53:54;5.70;99.90
42907;DHT22;28552;51.146;6.576;2024-03-17T00:56:57;5.70;99.90
42907;DHT22;28552;51.146;6.576;2024-03-17T00:59:57;5.60;99.90
42907;DHT22;28552;51.146;6.576;2024-03-17T01:02:58;5.60;99.90
42907;DHT22;28552;51.146;6.576;2024-03-17T01:05:59;5.60;99.90
42907;DHT22;28552;51.146;6.576;2024-03-17T01:08:59;5.60;99.90
42907;DHT22;28552;51.146;6.576;2024-03-17T01:12:00;5.60;99.90
42907;DHT22;28552;51.146;6.576;2024-03-17T01:15:04;5.60;99.90
42907;DHT22;28552;51.146;6.576;2024-03-17T01:18:05;5.60;99.90
42907;DHT22;28552;51.146;6.576;2024-03-17T01:21:07;5.60;99.90
42907;DHT22;28552;51.146;6.576;2024-03-17T01:24:07;5.60;99.90
42907;DHT22;28552;51.146;6.576;2024-03-17T01:27:08;5.60;99.90
42907;DHT22;28552;51.146;6.576;2024-03-17T01:30:14;5.60;99.90
42907;DHT22;28552;51.146;6.576;2024-03-17T01:33:15;5.50;99.90
42907;DHT22;28552;51.146;6.576;2024-03-17T01:36:17;5.50;99.90
42907;DHT22;28552;51.146;6.576;2024-03-17T01:39:18;5.40;99.90
42907;DHT22;28552;51.146;6.576;2024-03-17T01:42:19;5.30;99.90
42907;DHT22;28552;51.146;6.576;2024-03-17T01:45:29;5.30;99.90
42907;DHT22;28552;51.146;6.576;2024-03-17T01:48:30;5.20;99.90
42907;DHT22;28552;51.146;6.576;2024-03-17T01:51:31;5.20;99.90
42907;DHT22;28552;51.146;6.576;2024-03-17T01:54:32;5.10;99.90
42907;DHT22;28552;51.146;6.576;2024-03-17T01:57:33;5.10;99.90
42907;DHT22;28552;51.146;6.576;2024-03-17T02:00:34;5.00;99.90
42907;DHT22;28552;51.146;6.576;2024-03-17T02:03:36;5.00;99.90
42907;DHT22;28552;51.146;6.576;2024-03-17T02:06:37;5.00;99.90
42907;DHT22;28552;51.146;6.576;2024-03-17T02:09:37;4.90;99.90
42907;DHT22;28552;51.146;6.576;2024-03-17T02:12:38;4.80;99.90
42907;DHT22;28552;51.146;6.576;2024-03-17T02:15:39;4.80;99.90
42907;DHT22;28552;51.146;6.576;2024-03-17T02:18:39;4.80;99.90
42907;DHT22;28552;51.146;6.576;2024-03-17T02:21:40;4.70;99.90
42907;DHT22;28552;51.146;6.576;2024-03-17T02:24:41;4.70;99.90
42907;DHT22;28552;51.146;6.576;2024-03-17T02:27:41;4.70;99.90
42907;DHT22;28552;51.146;6.576;2024-03-17T02:30:42;4.70;99.90
42907;DHT22;28552;51.146;6.576;2024-03-17T02:33:44;4.60;99.90
42907;DHT22;28552;51.146;6.576;2024-03-17T02:36:45;4.60;99.90
42907;DHT22;28552;51.146;6.576;2024-03-17T02:39:45;4.50;99.90
42907;DHT22;28552;51.146;6.576;2024-03-17T02:42:46;4.50;99.90
42907;DHT22;28552;51.146;6.576;2024-03-17T02:45:46;4.50;99.90
42907;DHT22;28552;51.146;6.576;2024-03-17T02:48:50;4.40;99.90
42907;DHT22;28552;51.146;6.576;2024-03-17T02:51:51;4.40;99.90
42907;DHT22;28552;51.146;6.576;2024-03-17T02:54:52;4.40;99.90
42907;DHT22;28552;51.146;6.576;2024-03-17T02:57:53;4.40;99.90
42907;DHT22;28552;51.146;6.576;2024-03-17T03:00:54;4.40;99.90
42907;DHT22;28552;51.146;6.576;2024-03-17T03:03:55;4.40;99.90
42907;DHT22;28552;51.146;6.576;2024-03-17T03:06:55;4.30;99.90
42907;DHT22;28552;51.146;6.576;2024-03-17T03:09:56;4.40;99.90
42907;DHT22;28552;51.146;6.576;2024-03-17T03:12:57;4.30;99.90
42907;DHT22;28552;51.146;6.576;2024-03-17T03:15:57;4.30;99.90
42907;DHT22;28552;51.146;6.576;2024-03-17T03:18:58;4.30;99.90
42907;DHT22;28552;51.146;6.576;2024-03-17T03:21:59;4.30;99.90
42907;DHT22;28552;51.146;6.576;2024-03-17T03:24:59;4.30;99.90
42907;DHT22;28552;51.146;6.576;2024-03-17T03:28:00;4.40;99.90
42907;DHT22;28552;51.146;6.576;2024-03-17T03:31:02;4.40;99.90
42907;DHT22;28552;51.146;6.576;2024-03-17T03:34:03;4.50;99.90
42907;DHT22;28552;51.146;6.576;2024-03-17T03:37:03;4.60;99.90
42907;DHT22;28552;51.146;6.576;2024-03-17T03:40:07;4.60;99.90
42907;DHT22;28552;51.146;6.576;2024-03-17T03:43:16;4.70;99.90
42907;DHT22;28552;51.146;6.576;2024-03-17T03:46:19;4.80;99.90
42907;DHT22;28552;51.146;6.576;2024-03-17T03:49:21;4.80;99.90
42907;DHT22;28552;51.146;6.576;2024-03-17T03:52:21;4.90;99.90
42907;DHT22;28552;51.146;6.576;2024-03-17T03:55:22;5.00;99.90
42907;DHT22;28552;51.146;6.576;2024-03-17T03:58:24;5.10;99.90
42907;DHT22;28552;51.146;6.576;2024-03-17T04:01:25;5.10;99.90
42907;DHT22;28552;51.146;6.576;2024-03-17T04:04:25;5.20;99.90
42907;DHT22;28552;51.146;6.576;2024-03-17T04:07:26;5.20;99.90
42907;DHT22;28552;51.146;6.576;2024-03-17T04:10:27;5.30;99.90
42907;DHT22;28552;51.146;6.576;2024-03-17T04:13:29;5.40;99.90
42907;DHT22;28552;51.146;6.576;2024-03-17T04:16:30;5.40;99.90
42907;DHT22;28552;51.146;6.576;2024-03-17T04:19:31;5.50;99.90
42907;DHT22;28552;51.146;6.576;2024-03-17T04:22:32;5.50;99.90
42907;DHT22;28552;51.146;6.576;2024-03-17T04:25:33;5.50;99.90
42907;DHT22;28552;51.146;6.576;2024-03-17T04:28:33;5.60;99.90
42907;DHT22;28552;51.146;6.576;2024-03-17T04:31:36;5.60;99.90
42907;DHT22;28552;51.146;6.576;2024-03-17T04:34:38;5.60;99.90
42907;DHT22;28552;51.146;6.576;2024-03-17T04:37:38;5.60;99.90
42907;DHT22;28552;51.146;6.576;2024-03-17T04:40:40;5.60;99.90
42907;DHT22;28552;51.146;6.576;2024-03-17T04:43:41;5.50;99.90
42907;DHT22;28552;51.146;6.576;2024-03-17T04:46:42;5.50;99.90
42907;DHT22;28552;51.146;6.576;2024-03-17T04:49:44;5.40;99.90
42907;DHT22;28552;51.146;6.576;2024-03-17T04:52:44;5.30;99.90
42907;DHT22;28552;51.146;6.576;2024-03-17T04:55:45;5.20;99.90
42907;DHT22;28552;51.146;6.576;2024-03-17T04:58:46;5.20;99.90
42907;DHT22;28552;51.146;6.576;2024-03-17T05:01:46;5.10;99.90
42907;DHT22;28552;51.146;6.576;2024-03-17T05:04:47;5.00;99.90
42907;DHT22;28552;51.146;6.576;2024-03-17T05:07:48;4.90;99.90
42907;DHT22;28552;51.146;6.576;2024-03-17T05:10:55;4.90;99.90
42907;DHT22;28552;51.146;6.576;2024-03-17T05:13:55;4.90;99.90
42907;DHT22;28552;51.146;6.576;2024-03-17T05:16:57;4.90;99.90
42907;DHT22;28552;51.146;6.576;2024-03-17T05:19:58;4.90;99.90
42907;DHT22;28552;51.146;6.576;2024-03-17T05:22:58;4.90;99.90
42907;DHT22;28552;51.146;6.576;2024-03-17T05:26:00;4.80;99.90
42907;DHT22;28552;51.146;6.576;2024-03-17T05:29:01;4.80;99.90
42907;DHT22;28552;51.146;6.576;2024-03-17T05:32:01;4.80;99.90
42907;DHT22;28552;51.146;6.576;2024-03-17T05:35:03;4.70;99.90
42907;DHT22;28552;51.146;6.576;2024-03-17T05:38:04;4.70;99.90
42907;DHT22;28552;51.146;6.576;2024-03-17T05:41:06;4.60;99.90
42907;DHT22;28552;51.146;6.576;2024-03-17T05:44:07;4.50;99.90
42907;DHT22;28552;51.146;6.576;2024-03-17T05:47:08;4.50;99.90
42907;DHT22;28552;51.146;6.576;2024-03-17T05:50:09;4.40;99.90
42907;DHT22;28552;51.146;6.576;2024-03-17T05:53:09;4.40;99.90
42907;DHT22;28552;51.146;6.576;2024-03-17T05:56:10;4.40;99.90
42907;DHT22;28552;51.146;6.576;2024-03-17T05:59:12;4.40;99.90
42907;DHT22;28552;51.146;6.576;2024-03-17T06:02:13;4.40;99.90
42907;DHT22;28552;51.146;6.576;2024-03-17T06:05:15;4.40;99.90
42907;DHT22;28552;51.146;6.576;2024-03-17T06:08:16;4.40;99.90
42907;DHT22;28552;51.146;6.576;2024-03-17T06:11:17;4.40;99.90
42907;DHT22;28552;51.146;6.576;2024-03-17T06:14:18;4.50;99.90
42907;DHT22;28552;51.146;6.576;2024-03-17T06:17:18;4.50;99.90
42907;DHT22;28552;51.146;6.576;2024-03-17T06:20:22;4.60;99.90
42907;DHT22;28552;51.146;6.576;2024-03-17T06:23:24;4.60;99.90
42907;DHT22;28552;51.146;6.576;2024-03-17T06:26:24;4.60;99.90
42907;DHT22;28552;51.146;6.576;2024-03-17T06:29:27;4.70;99.90
42907;DHT22;28552;51.146;6.576;2024-03-17T06:32:27;4.70;99.90
42907;DHT22;28552;51.146;6.576;2024-03-17T06:35:28;4.80;99.90
42907;DHT22;28552;51.146;6.576;2024-03-17T06:38:32;4.90;99.90
42907;DHT22;28552;51.146;6.576;2024-03-17T06:41:32;4.90;99.90
42907;DHT22;28552;51.146;6.576;2024-03-17T06:44:33;5.00;99.90
42907;DHT22;28552;51.146;6.576;2024-03-17T06:47:37;5.00;99.90
42907;DHT22;28552;51.146;6.576;2024-03-17T06:50:38;5.00;99.90
42907;DHT22;28552;51.146;6.576;2024-03-17T06:53:41;5.00;99.90
42907;DHT22;28552;51.146;6.576;2024-03-17T06:56:41;5.10;99.90
42907;DHT22;28552;51.146;6.576;2024-03-17T06:59:42;5.10;99.90
42907;DHT22;28552;51.146;6.576;2024-03-17T07:02:44;5.10;99.90
42907;DHT22;28552;51.146;6.576;2024-03-17T07:05:51;5.20;99.90
42907;DHT22;28552;51.146;6.576;2024-03-17T07:08:52;5.20;99.90
42907;DHT22;28552;51.146;6.576;2024-03-17T07:11:53;5.20;99.90
42907;DHT22;28552;51.146;6.576;2024-03-17T07:14:54;5.40;99.90
42907;DHT22;28552;51.146;6.576;2024-03-17T07:17:54;5.50;99.90
42907;DHT22;28552;51.146;6.576;2024-03-17T07:20:58;5.60;99.90
42907;DHT22;28552;51.146;6.576;2024-03-17T07:23:59;5.70;99.90
42907;DHT22;28552;51.146;6.576;2024-03-17T07:27:04;6.00;99.90
42907;DHT22;28552;51.146;6.576;2024-03-17T07:30:09;6.20;99.90
42907;DHT22;28552;51.146;6.576;2024-03-17T07:33:10;6.50;99.90
42907;DHT22;28552;51.146;6.576;2024-03-17T07:36:11;6.80;99.90
42907;DHT22;28552;51.146;6.576;2024-03-17T07:39:12;7.10;99.90
42907;DHT22;28552;51.146;6.576;2024-03-17T07:42:13;7.40;99.90
42907;DHT22;28552;51.146;6.576;2024-03-17T07:45:13;7.60;99.90
42907;DHT22;28552;51.146;6.576;2024-03-17T07:48:14;7.90;99.90
42907;DHT22;28552;51.146;6.576;2024-03-17T07:51:16;8.30;99.90
42907;DHT22;28552;51.146;6.576;2024-03-17T07:54:17;8.50;99.90
42907;DHT22;28552;51.146;6.576;2024-03-17T07:57:20;8.90;99.90
42907;DHT22;28552;51.146;6.576;2024-03-17T08:00:21;9.20;99.90
42907;DHT22;28552;51.146;6.576;2024-03-17T08:03:22;9.30;99.90
42907;DHT22;28552;51.146;6.576;2024-03-17T08:06:23;9.50;99.90
42907;DHT22;28552;51.146;6.576;2024-03-17T08:09:24;9.70;99.90
42907;DHT22;28552;51.146;6.576;2024-03-17T08:12:25;9.70;99.90
42907;DHT22;28552;51.146;6.576;2024-03-17T08:15:28;9.50;99.90
42907;DHT22;28552;51.146;6.576;2024-03-17T08:18:31;9.30;99.90
42907;DHT22;28552;51.146;6.576;2024-03-17T08:21:32;9.30;99.90
42907;DHT22;28552;51.146;6.576;2024-03-17T08:24:33;9.40;99.90
42907;DHT22;28552;51.146;6.576;2024-03-17T08:27:33;9.80;99.90
42907;DHT22;28552;51.146;6.576;2024-03-17T08:30:34;10.10;99.90
42907;DHT22;28552;51.146;6.576;2024-03-17T08:33:35;10.20;99.90
42907;DHT22;28552;51.146;6.576;2024-03-17T08:36:35;10.20;99.90
42907;DHT22;28552;51.146;6.576;2024-03-17T08:39:36;10.20;99.90
42907;DHT22;28552;51.146;6.576;2024-03-17T08:42:37;10.20;99.90
42907;DHT22;28552;51.146;6.576;2024-03-17T08:45:38;10.10;99.90
42907;DHT22;28552;51.146;6.576;2024-03-17T08:48:40;10.10;99.90
42907;DHT22;28552;51.146;6.576;2024-03-17T08:51:41;10.00;99.90
42907;DHT22;28552;51.146;6.576;2024-03-17T08:54:45;10.00;99.90
42907;DHT22;28552;51.146;6.576;2024-03-17T08:57:46;10.00;99.90
42907;DHT22;28552;51.146;6.576;2024-03-17T09:00:46;10.00;99.90
42907;DHT22;28552;51.146;6.576;2024-03-17T09:03:47;10.00;99.90
42907;DHT22;28552;51.146;6.576;2024-03-17T09:06:49;10.10;99.90
42907;DHT22;28552;51.146;6.576;2024-03-17T09:09:50;10.20;99.90
42907;DHT22;28552;51.146;6.576;2024-03-17T09:12:51;10.20;99.90
42907;DHT22;28552;51.146;6.576;2024-03-17T09:15:59;10.30;99.90
42907;DHT22;28552;51.146;6.576;2024-03-17T09:19:00;10.40;99.90
42907;DHT22;28552;51.146;6.576;2024-03-17T09:22:00;10.40;99.90
42907;DHT22;28552;51.146;6.576;2024-03-17T09:25:01;10.40;99.90
42907;DHT22;28552;51.146;6.576;2024-03-17T09:28:02;10.40;99.90
42907;DHT22;28552;51.146;6.576;2024-03-17T09:31:03;10.40;99.90
42907;DHT22;28552;51.146;6.576;2024-03-17T09:34:05;10.50;99.90
42907;DHT22;28552;51.146;6.576;2024-03-17T09:37:06;10.50;99.90
42907;DHT22;28552;51.146;6.576;2024-03-17T09:40:13;10.60;99.90
42907;DHT22;28552;51.146;6.576;2024-03-17T09:43:15;10.60;99.90
42907;DHT22;28552;51.146;6.576;2024-03-17T09:46:16;10.70;99.90
42907;DHT22;28552;51.146;6.576;2024-03-17T09:49:17;10.70;99.90
42907;DHT22;28552;51.146;6.576;2024-03-17T09:52:21;10.80;99.90
42907;DHT22;28552;51.146;6.576;2024-03-17T09:55:22;10.90;99.90
42907;DHT22;28552;51.146;6.576;2024-03-17T09:58:23;11.00;99.90
42907;DHT22;28552;51.146;6.576;2024-03-17T10:01:23;11.00;99.90
42907;DHT22;28552;51.146;6.576;2024-03-17T10:04:32;11.10;99.90
42907;DHT22;28552;51.146;6.576;2024-03-17T10:07:41;11.00;99.90
42907;DHT22;28552;51.146;6.576;2024-03-17T10:10:42;11.00;99.90
42907;DHT22;28552;51.146;6.576;2024-03-17T10:13:43;11.00;99.90
42907;DHT22;28552;51.146;6.576;2024-03-17T10:16:44;11.00;99.90
42907;DHT22;28552;51.146;6.576;2024-03-17T10:19:45;11.10;99.90
42907;DHT22;28552;51.146;6.576;2024-03-17T10:23:02;11.10;99.90
42907;DHT22;28552;51.146;6.576;2024-03-17T10:26:13;11.30;99.90
42907;DHT22;28552;51.146;6.576;2024-03-17T10:29:29;11.40;99.90
42907;DHT22;28552;51.146;6.576;2024-03-17T10:32:30;11.60;99.90
42907;DHT22;28552;51.146;6.576;2024-03-17T10:35:33;11.60;99.90
42907;DHT22;28552;51.146;6.576;2024-03-17T10:38:34;11.70;99.90
42907;DHT22;28552;51.146;6.576;2024-03-17T10:41:35;11.80;99.90
42907;DHT22;28552;51.146;6.576;2024-03-17T10:44:39;11.90;99.90
42907;DHT22;28552;51.146;6.576;2024-03-17T10:47:43;12.00;99.90
42907;DHT22;28552;51.146;6.576;2024-03-17T10:50:49;12.20;99.90
42907;DHT22;28552;51.146;6.576;2024-03-17T10:53:52;12.20;99.90
42907;DHT22;28552;51.146;6.576;2024-03-17T10:56:55;12.20;99.90
42907;DHT22;28552;51.146;6.576;2024-03-17T10:59:59;12.20;99.90
42907;DHT22;28552;51.146;6.576;2024-03-17T11:03:00;12.30;99.90
42907;DHT22;28552;51.146;6.576;2024-03-17T11:06:03;12.40;99.90
42907;DHT22;28552;51.146;6.576;2024-03-17T11:09:13;12.50;99.90
42907;DHT22;28552;51.146;6.576;2024-03-17T11:12:41;12.60;99.90
42907;DHT22;28552;51.146;6.576;2024-03-17T11:15:43;12.80;99.90
42907;DHT22;28552;51.146;6.576;2024-03-17T11:18:44;13.10;99.90
42907;DHT22;28552;51.146;6.576;2024-03-17T11:21:45;13.20;99.90
42907;DHT22;28552;51.146;6.576;2024-03-17T11:24:47;13.40;99.90
42907;DHT22;28552;51.146;6.576;2024-03-17T11:27:48;13.60;99.90
42907;DHT22;28552;51.146;6.576;2024-03-17T11:30:49;13.70;99.90
42907;DHT22;28552;51.146;6.576;2024-03-17T11:33:55;13.80;99.90
42907;DHT22;28552;51.146;6.576;2024-03-17T11:37:02;14.00;99.90
42907;DHT22;28552;51.146;6.576;2024-03-17T11:40:26;14.10;99.90
42907;DHT22;28552;51.146;6.576;2024-03-17T11:43:26;14.10;99.90
42907;DHT22;28552;51.146;6.576;2024-03-17T11:46:27;14.10;99.90
42907;DHT22;28552;51.146;6.576;2024-03-17T11:49:30;14.00;99.90
42907;DHT22;28552;51.146;6.576;2024-03-17T11:52:31;13.90;99.90
42907;DHT22;28552;51.146;6.576;2024-03-17T11:55:32;14.00;99.90
42907;DHT22;28552;51.146;6.576;2024-03-17T11:58:32;14.00;99.90
42907;DHT22;28552;51.146;6.576;2024-03-17T12:01:33;14.00;99.90
42907;DHT22;28552;51.146;6.576;2024-03-17T12:04:39;14.10;99.90
42907;DHT22;28552;51.146;6.576;2024-03-17T12:07:43;14.20;99.90
42907;DHT22;28552;51.146;6.576;2024-03-17T12:10:48;14.30;99.90
42907;DHT22;28552;51.146;6.576;2024-03-17T12:13:49;14.40;99.90
42907;DHT22;28552;51.146;6.576;2024-03-17T12:16:51;14.40;99.90
42907;DHT22;28552;51.146;6.576;2024-03-17T12:19:52;14.60;99.90
42907;DHT22;28552;51.146;6.576;2024-03-17T12:22:52;14.70;99.90
42907;DHT22;28552;51.146;6.576;2024-03-17T12:25:55;14.80;99.90
42907;DHT22;28552;51.146;6.576;2024-03-17T12:28:55;14.80;99.90
42907;DHT22;28552;51.146;6.576;2024-03-17T12:31:57;14.80;99.90
42907;DHT22;28552;51.146;6.576;2024-03-17T12:34:58;14.70;99.90
42907;DHT22;28552;51.146;6.576;2024-03-17T12:37:59;14.60;99.90
42907;DHT22;28552;51.146;6.576;2024-03-17T12:41:00;14.50;99.90
42907;DHT22;28552;51.146;6.576;2024-03-17T12:44:00;14.40;99.90
42907;DHT22;28552;51.146;6.576;2024-03-17T12:47:03;14.40;99.90
42907;DHT22;28552;51.146;6.576;2024-03-17T12:50:11;14.50;99.90
42907;DHT22;28552;51.146;6.576;2024-03-17T12:53:16;14.60;99.90
42907;DHT22;28552;51.146;6.576;2024-03-17T12:56:23;14.60;99.90
42907;DHT22;28552;51.146;6.576;2024-03-17T12:59:40;14.50;99.90
42907;DHT22;28552;51.146;6.576;2024-03-17T13:02:55;14.50;99.90
42907;DHT22;28552;51.146;6.576;2024-03-17T13:05:56;14.40;99.90
42907;DHT22;28552;51.146;6.576;2024-03-17T13:08:57;14.30;99.90
42907;DHT22;28552;51.146;6.576;2024-03-17T13:11:57;14.20;99.90
42907;DHT22;28552;51.146;6.576;2024-03-17T13:14:58;14.10;99.90
42907;DHT22;28552;51.146;6.576;2024-03-17T13:17:59;14.10;99.90
42907;DHT22;28552;51.146;6.576;2024-03-17T13:20:59;14.00;99.90
42907;DHT22;28552;51.146;6.576;2024-03-17T13:24:01;14.00;99.90
42907;DHT22;28552;51.146;6.576;2024-03-17T13:27:02;14.00;99.90
42907;DHT22;28552;51.146;6.576;2024-03-17T13:30:06;14.00;99.90
42907;DHT22;28552;51.146;6.576;2024-03-17T13:33:10;14.10;99.90
42907;DHT22;28552;51.146;6.576;2024-03-17T13:36:12;14.10;99.90
42907;DHT22;28552;51.146;6.576;2024-03-17T13:39:13;14.20;99.90
42907;DHT22;28552;51.146;6.576;2024-03-17T13:42:14;14.10;99.90
42907;DHT22;28552;51.146;6.576;2024-03-17T13:45:16;14.10;99.90
42907;DHT22;28552;51.146;6.576;2024-03-17T13:48:16;14.10;99.90
42907;DHT22;28552;51.146;6.576;2024-03-17T13:51:17;14.20;99.90
42907;DHT22;28552;51.146;6.576;2024-03-17T13:54:18;14.30;99.90
42907;DHT22;28552;51.146;6.576;2024-03-17T13:57:18;14.30;99.90
42907;DHT22;28552;51.146;6.576;2024-03-17T14:00:19;14.30;99.90
42907;DHT22;28552;51.146;6.576;2024-03-17T14:03:21;14.30;99.90
42907;DHT22;28552;51.146;6.576;2024-03-17T14:06:22;14.30;99.90
42907;DHT22;28552;51.146;6.576;2024-03-17T14:09:22;14.30;99.90
42907;DHT22;28552;51.146;6.576;2024-03-17T14:12:23;14.20;99.90
42907;DHT22;28552;51.146;6.576;2024-03-17T14:15:26;14.20;99.90
42907;DHT22;28552;51.146;6.576;2024-03-17T14:18:27;14.20;99.90
42907;DHT22;28552;51.146;6.576;2024-03-17T14:21:28;14.30;99.90
42907;DHT22;28552;51.146;6.576;2024-03-17T14:24:28;14.30;99.90
42907;DHT22;28552;51.146;6.576;2024-03-17T14:27:29;14.40;99.90
42907;DHT22;28552;51.146;6.576;2024-03-17T14:30:30;14.50;99.90
42907;DHT22;28552;51.146;6.576;2024-03-17T14:33:31;14.60;99.90
42907;DHT22;28552;51.146;6.576;2024-03-17T14:36:32;14.70;99.90
42907;DHT22;28552;51.146;6.576;2024-03-17T14:39:33;14.80;99.90
42907;DHT22;28552;51.146;6.576;2024-03-17T14:42:34;14.90;99.90
42907;DHT22;28552;51.146;6.576;2024-03-17T14:45:34;15.00;99.90
42907;DHT22;28552;51.146;6.576;2024-03-17T14:48:35;15.00;99.90
42907;DHT22;28552;51.146;6.576;2024-03-17T14:51:38;15.00;99.90
42907;DHT22;28552;51.146;6.576;2024-03-17T14:54:38;14.90;99.90
42907;DHT22;28552;51.146;6.576;2024-03-17T14:57:39;14.90;99.90
42907;DHT22;28552;51.146;6.576;2024-03-17T15:00:40;14.90;99.90
42907;DHT22;28552;51.146;6.576;2024-03-17T15:03:42;15.00;99.90
42907;DHT22;28552;51.146;6.576;2024-03-17T15:06:44;15.00;99.90
42907;DHT22;28552;51.146;6.576;2024-03-17T15:09:44;15.00;99.90
42907;DHT22;28552;51.146;6.576;2024-03-17T15:12:45;15.10;99.90
42907;DHT22;28552;51.146;6.576;2024-03-17T15:15:45;15.10;99.90
42907;DHT22;28552;51.146;6.576;2024-03-17T15:18:47;15.10;99.90
42907;DHT22;28552;51.146;6.576;2024-03-17T15:21:48;15.10;99.90
42907;DHT22;28552;51.146;6.576;2024-03-17T15:24:48;15.10;99.90
42907;DHT22;28552;51.146;6.576;2024-03-17T15:27:49;15.00;99.90
42907;DHT22;28552;51.146;6.576;2024-03-17T15:30:50;15.00;99.90
42907;DHT22;28552;51.146;6.576;2024-03-17T15:33:51;15.00;99.90
42907;DHT22;28552;51.146;6.576;2024-03-17T15:36:52;15.10;99.90
42907;DHT22;28552;51.146;6.576;2024-03-17T15:39:53;15.10;99.90
42907;DHT22;28552;51.146;6.576;2024-03-17T15:42:55;15.00;99.90
42907;DHT22;28552;51.146;6.576;2024-03-17T15:45:59;14.90;99.90
42907;DHT22;28552;51.146;6.576;2024-03-17T15:49:00;14.90;99.90
42907;DHT22;28552;51.146;6.576;2024-03-17T15:52:01;14.90;99.90
42907;DHT22;28552;51.146;6.576;2024-03-17T15:55:02;14.80;99.90
42907;DHT22;28552;51.146;6.576;2024-03-17T15:58:04;14.70;99.90
42907;DHT22;28552;51.146;6.576;2024-03-17T16:01:06;14.50;99.90
42907;DHT22;28552;51.146;6.576;2024-03-17T16:04:07;14.40;99.90
42907;DHT22;28552;51.146;6.576;2024-03-17T16:07:08;14.30;99.90
42907;DHT22;28552;51.146;6.576;2024-03-17T16:10:11;14.20;99.90
42907;DHT22;28552;51.146;6.576;2024-03-17T16:13:14;14.20;99.90
42907;DHT22;28552;51.146;6.576;2024-03-17T16:16:17;14.20;99.90
42907;DHT22;28552;51.146;6.576;2024-03-17T16:19:18;14.20;99.90
42907;DHT22;28552;51.146;6.576;2024-03-17T16:22:18;14.20;99.90
42907;DHT22;28552;51.146;6.576;2024-03-17T16:25:19;14.30;99.90
42907;DHT22;28552;51.146;6.576;2024-03-17T16:28:21;14.20;99.90
42907;DHT22;28552;51.146;6.576;2024-03-17T16:31:23;14.20;99.90
42907;DHT22;28552;51.146;6.576;2024-03-17T16:34:26;14.10;99.90
42907;DHT22;28552;51.146;6.576;2024-03-17T16:37:28;14.00;99.90
42907;DHT22;28552;51.146;6.576;2024-03-17T16:40:30;14.00;99.90
42907;DHT22;28552;51.146;6.576;2024-03-17T16:50:24;13.80;99.90
42907;DHT22;28552;51.146;6.576;2024-03-17T16:53:24;13.80;99.90
42907;DHT22;28552;51.146;6.576;2024-03-17T16:56:25;13.70;99.90
42907;DHT22;28552;51.146;6.576;2024-03-17T16:59:26;13.60;99.90
42907;DHT22;28552;51.146;6.576;2024-03-17T17:02:27;13.60;99.90
42907;DHT22;28552;51.146;6.576;2024-03-17T17:05:27;13.50;99.90
42907;DHT22;28552;51.146;6.576;2024-03-17T17:08:28;13.40;99.90
42907;DHT22;28552;51.146;6.576;2024-03-17T17:11:30;13.40;99.90
42907;DHT22;28552;51.146;6.576;2024-03-17T17:14:32;13.30;99.90
42907;DHT22;28552;51.146;6.576;2024-03-17T17:17:37;13.30;99.90
42907;DHT22;28552;51.146;6.576;2024-03-17T17:20:38;13.20;99.90
42907;DHT22;28552;51.146;6.576;2024-03-17T17:23:38;13.20;99.90
42907;DHT22;28552;51.146;6.576;2024-03-17T17:26:39;13.20;99.90
42907;DHT22;28552;51.146;6.576;2024-03-17T17:29:39;13.10;99.90
42907;DHT22;28552;51.146;6.576;2024-03-17T17:32:40;13.10;99.90
42907;DHT22;28552;51.146;6.576;2024-03-17T17:35:42;13.00;99.90
42907;DHT22;28552;51.146;6.576;2024-03-17T17:38:43;13.00;99.90
42907;DHT22;28552;51.146;6.576;2024-03-17T17:41:44;12.90;99.90
42907;DHT22;28552;51.146;6.576;2024-03-17T17:44:46;12.90;99.90
42907;DHT22;28552;51.146;6.576;2024-03-17T17:47:46;12.90;99.90
42907;DHT22;28552;51.146;6.576;2024-03-17T17:50:47;12.80;99.90
42907;DHT22;28552;51.146;6.576;2024-03-17T17:53:49;12.80;99.90
42907;DHT22;28552;51.146;6.576;2024-03-17T17:56:50;12.70;99.90
42907;DHT22;28552;51.146;6.576;2024-03-17T17:59:51;12.70;99.90
42907;DHT22;28552;51.146;6.576;2024-03-17T18:02:51;12.70;99.90
42907;DHT22;28552;51.146;6.576;2024-03-17T18:05:53;12.70;99.90
42907;DHT22;28552;51.146;6.576;2024-03-17T18:08:55;12.60;99.90
42907;DHT22;28552;51.146;6.576;2024-03-17T18:11:57;12.60;99.90
42907;DHT22;28552;51.146;6.576;2024-03-17T18:14:59;12.60;99.90
42907;DHT22;28552;51.146;6.576;2024-03-17T18:18:00;12.60;99.90
42907;DHT22;28552;51.146;6.576;2024-03-17T18:21:02;12.60;99.90
42907;DHT22;28552;51.146;6.576;2024-03-17T18:24:04;12.50;99.90
42907;DHT22;28552;51.146;6.576;2024-03-17T18:27:04;12.50;99.90
42907;DHT22;28552;51.146;6.576;2024-03-17T18:30:05;12.40;99.90
42907;DHT22;28552;51.146;6.576;2024-03-17T18:33:06;12.30;99.90
42907;DHT22;28552;51.146;6.576;2024-03-17T18:36:08;12.20;99.90
42907;DHT22;28552;51.146;6.576;2024-03-17T18:39:08;12.10;99.90
42907;DHT22;28552;51.146;6.576;2024-03-17T18:42:09;12.00;99.90
42907;DHT22;28552;51.146;6.576;2024-03-17T18:45:11;12.00;99.90
42907;DHT22;28552;51.146;6.576;2024-03-17T18:48:13;11.90;99.90
42907;DHT22;28552;51.146;6.576;2024-03-17T18:51:14;11.90;99.90
42907;DHT22;28552;51.146;6.576;2024-03-17T18:54:16;11.90;99.90
42907;DHT22;28552;51.146;6.576;2024-03-17T18:57:17;11.90;99.90
42907;DHT22;28552;51.146;6.576;2024-03-17T19:00:19;11.90;99.90
42907;DHT22;28552;51.146;6.576;2024-03-17T19:03:19;11.90;99.90
42907;DHT22;28552;51.146;6.576;2024-03-17T19:06:24;11.80;99.90
42907;DHT22;28552;51.146;6.576;2024-03-17T19:09:25;11.80;99.90
42907;DHT22;28552;51.146;6.576;2024-03-17T19:12:26;11.70;99.90
42907;DHT22;28552;51.146;6.576;2024-03-17T19:15:27;11.60;99.90
42907;DHT22;28552;51.146;6.576;2024-03-17T19:18:28;11.60;99.90
42907;DHT22;28552;51.146;6.576;2024-03-17T19:21:29;11.50;99.90
42907;DHT22;28552;51.146;6.576;2024-03-17T19:24:36;11.50;99.90